sensor_id;sensor_type;location;lat;lon;timestamp;P1;durP1;ratioP1;P2;durP2;ratioP2
43650;SDS011;29247;50.944;5.382;2023-07-20T00:01:03;3.50;;;2.03;;
43650;SDS011;29247;50.944;5.382;2023-07-20T00:03:29;3.15;;;1.80;;
43650;SDS011;29247;50.944;5.382;2023-07-20T00:05:55;2.10;;;1.90;;
43650;SDS011;29247;50.944;5.382;2023-07-20T00:08:23;5.60;;;2.15;;
43650;SDS011;29247;50.944;5.382;2023-07-20T00:10:50;2.08;;;1.60;;
43650;SDS011;29247;50.944;5.382;2023-07-20T00:13:18;2.78;;;1.88;;
43650;SDS011;29247;50.944;5.382;2023-07-20T00:15:46;3.10;;;1.60;;
43650;SDS011;29247;50.944;5.382;2023-07-20T00:18:12;2.28;;;1.63;;
43650;SDS011;29247;50.944;5.382;2023-07-20T00:20:42;5.10;;;2.20;;
43650;SDS011;29247;50.944;5.382;2023-07-20T00:23:07;3.35;;;2.30;;
43650;SDS011;29247;50.944;5.382;2023-07-20T00:25:35;3.13;;;2.00;;
43650;SDS011;29247;50.944;5.382;2023-07-20T00:28:04;3.42;;;1.85;;
43650;SDS011;29247;50.944;5.382;2023-07-20T00:30:29;4.15;;;1.73;;
43650;SDS011;29247;50.944;5.382;2023-07-20T00:32:57;2.78;;;2.20;;
43650;SDS011;29247;50.944;5.382;2023-07-20T00:35:28;1.98;;;1.73;;
43650;SDS011;29247;50.944;5.382;2023-07-20T00:37:58;3.58;;;1.80;;
43650;SDS011;29247;50.944;5.382;2023-07-20T00:40:24;2.60;;;1.80;;
43650;SDS011;29247;50.944;5.382;2023-07-20T00:42:50;5.97;;;1.80;;
43650;SDS011;29247;50.944;5.382;2023-07-20T00:45:15;3.35;;;1.63;;
43650;SDS011;29247;50.944;5.382;2023-07-20T00:47:41;3.60;;;1.50;;
43650;SDS011;29247;50.944;5.382;2023-07-20T00:50:07;2.28;;;1.92;;
43650;SDS011;29247;50.944;5.382;2023-07-20T00:52:33;3.72;;;1.85;;
43650;SDS011;29247;50.944;5.382;2023-07-20T00:55:04;3.83;;;1.70;;
43650;SDS011;29247;50.944;5.382;2023-07-20T00:57:31;2.88;;;2.17;;
43650;SDS011;29247;50.944;5.382;2023-07-20T00:59:57;3.88;;;1.60;;
43650;SDS011;29247;50.944;5.382;2023-07-20T01:02:23;3.33;;;2.22;;
43650;SDS011;29247;50.944;5.382;2023-07-20T01:04:49;3.38;;;1.98;;
43650;SDS011;29247;50.944;5.382;2023-07-20T01:10:12;2.90;;;1.92;;
43650;SDS011;29247;50.944;5.382;2023-07-20T01:12:43;2.97;;;1.90;;
43650;SDS011;29247;50.944;5.382;2023-07-20T01:15:12;4.05;;;2.28;;
43650;SDS011;29247;50.944;5.382;2023-07-20T01:17:38;3.55;;;1.77;;
43650;SDS011;29247;50.944;5.382;2023-07-20T01:20:04;4.68;;;1.70;;
43650;SDS011;29247;50.944;5.382;2023-07-20T01:25:18;3.50;;;1.90;;
43650;SDS011;29247;50.944;5.382;2023-07-20T01:28:02;5.07;;;2.22;;
43650;SDS011;29247;50.944;5.382;2023-07-20T01:33:47;5.20;;;2.00;;
43650;SDS011;29247;50.944;5.382;2023-07-20T01:36:16;3.60;;;1.73;;
43650;SDS011;29247;50.944;5.382;2023-07-20T01:38:43;6.70;;;2.13;;
43650;SDS011;29247;50.944;5.382;2023-07-20T01:41:14;4.80;;;1.70;;
43650;SDS011;29247;50.944;5.382;2023-07-20T01:43:40;5.13;;;1.92;;
43650;SDS011;29247;50.944;5.382;2023-07-20T01:46:06;3.35;;;1.83;;
43650;SDS011;29247;50.944;5.382;2023-07-20T01:48:32;2.92;;;1.75;;
43650;SDS011;29247;50.944;5.382;2023-07-20T01:50:57;3.53;;;1.70;;
43650;SDS011;29247;50.944;5.382;2023-07-20T01:53:23;3.17;;;2.10;;
43650;SDS011;29247;50.944;5.382;2023-07-20T01:55:57;5.05;;;1.95;;
43650;SDS011;29247;50.944;5.382;2023-07-20T01:58:23;4.05;;;1.70;;
43650;SDS011;29247;50.944;5.382;2023-07-20T02:00:49;3.58;;;1.85;;
43650;SDS011;29247;50.944;5.382;2023-07-20T02:03:15;8.13;;;2.08;;
43650;SDS011;29247;50.944;5.382;2023-07-20T02:05:46;6.75;;;1.70;;
43650;SDS011;29247;50.944;5.382;2023-07-20T02:08:12;4.82;;;2.20;;
43650;SDS011;29247;50.944;5.382;2023-07-20T02:10:38;5.97;;;2.47;;
43650;SDS011;29247;50.944;5.382;2023-07-20T02:13:03;4.75;;;2.22;;
43650;SDS011;29247;50.944;5.382;2023-07-20T02:15:31;2.72;;;1.67;;
43650;SDS011;29247;50.944;5.382;2023-07-20T02:17:57;7.93;;;2.35;;
43650;SDS011;29247;50.944;5.382;2023-07-20T02:20:22;3.30;;;1.70;;
43650;SDS011;29247;50.944;5.382;2023-07-20T02:22:48;3.72;;;2.08;;
43650;SDS011;29247;50.944;5.382;2023-07-20T02:25:14;2.80;;;1.80;;
43650;SDS011;29247;50.944;5.382;2023-07-20T02:27:39;5.38;;;1.83;;
43650;SDS011;29247;50.944;5.382;2023-07-20T02:30:07;5.40;;;1.80;;
43650;SDS011;29247;50.944;5.382;2023-07-20T02:32:36;4.40;;;1.77;;
43650;SDS011;29247;50.944;5.382;2023-07-20T02:35:04;4.40;;;2.10;;
43650;SDS011;29247;50.944;5.382;2023-07-20T02:37:31;10.90;;;2.30;;
43650;SDS011;29247;50.944;5.382;2023-07-20T02:39:57;5.85;;;2.22;;
43650;SDS011;29247;50.944;5.382;2023-07-20T02:42:29;6.00;;;2.17;;
43650;SDS011;29247;50.944;5.382;2023-07-20T02:44:54;7.78;;;2.03;;
43650;SDS011;29247;50.944;5.382;2023-07-20T02:47:20;2.60;;;1.80;;
43650;SDS011;29247;50.944;5.382;2023-07-20T02:49:50;5.38;;;2.30;;
43650;SDS011;29247;50.944;5.382;2023-07-20T02:52:18;4.78;;;2.13;;
43650;SDS011;29247;50.944;5.382;2023-07-20T02:54:46;3.80;;;2.40;;
43650;SDS011;29247;50.944;5.382;2023-07-20T02:57:11;3.13;;;1.88;;
43650;SDS011;29247;50.944;5.382;2023-07-20T02:59:40;4.45;;;2.22;;
43650;SDS011;29247;50.944;5.382;2023-07-20T03:02:05;3.70;;;2.10;;
43650;SDS011;29247;50.944;5.382;2023-07-20T03:04:34;3.55;;;2.30;;
43650;SDS011;29247;50.944;5.382;2023-07-20T03:07:06;3.85;;;2.05;;
43650;SDS011;29247;50.944;5.382;2023-07-20T03:09:32;5.13;;;2.20;;
43650;SDS011;29247;50.944;5.382;2023-07-20T03:11:58;4.18;;;2.00;;
43650;SDS011;29247;50.944;5.382;2023-07-20T03:14:24;3.05;;;1.98;;
43650;SDS011;29247;50.944;5.382;2023-07-20T03:16:50;7.05;;;2.58;;
43650;SDS011;29247;50.944;5.382;2023-07-20T03:19:18;7.32;;;2.33;;
43650;SDS011;29247;50.944;5.382;2023-07-20T03:21:43;3.50;;;2.13;;
43650;SDS011;29247;50.944;5.382;2023-07-20T03:24:09;6.13;;;2.28;;
43650;SDS011;29247;50.944;5.382;2023-07-20T03:26:37;3.67;;;2.08;;
43650;SDS011;29247;50.944;5.382;2023-07-20T03:29:03;4.22;;;2.10;;
43650;SDS011;29247;50.944;5.382;2023-07-20T03:31:29;4.85;;;2.25;;
43650;SDS011;29247;50.944;5.382;2023-07-20T03:33:55;4.18;;;2.13;;
43650;SDS011;29247;50.944;5.382;2023-07-20T03:36:20;6.32;;;2.00;;
43650;SDS011;29247;50.944;5.382;2023-07-20T03:38:49;8.18;;;2.30;;
43650;SDS011;29247;50.944;5.382;2023-07-20T03:41:17;3.78;;;2.30;;
43650;SDS011;29247;50.944;5.382;2023-07-20T03:43:44;3.20;;;2.13;;
43650;SDS011;29247;50.944;5.382;2023-07-20T03:46:12;6.75;;;2.30;;
43650;SDS011;29247;50.944;5.382;2023-07-20T03:48:38;4.60;;;2.53;;
43650;SDS011;29247;50.944;5.382;2023-07-20T03:51:04;6.72;;;2.65;;
43650;SDS011;29247;50.944;5.382;2023-07-20T03:53:31;3.15;;;2.55;;
43650;SDS011;29247;50.944;5.382;2023-07-20T03:55:59;7.78;;;2.10;;
43650;SDS011;29247;50.944;5.382;2023-07-20T03:58:25;7.68;;;2.53;;
43650;SDS011;29247;50.944;5.382;2023-07-20T04:00:51;7.63;;;2.85;;
43650;SDS011;29247;50.944;5.382;2023-07-20T04:03:17;3.30;;;2.03;;
43650;SDS011;29247;50.944;5.382;2023-07-20T04:05:43;4.45;;;2.45;;
43650;SDS011;29247;50.944;5.382;2023-07-20T04:08:11;8.38;;;2.60;;
43650;SDS011;29247;50.944;5.382;2023-07-20T04:10:37;8.70;;;2.75;;
43650;SDS011;29247;50.944;5.382;2023-07-20T04:13:04;4.95;;;2.45;;
43650;SDS011;29247;50.944;5.382;2023-07-20T04:15:32;8.05;;;4.15;;
43650;SDS011;29247;50.944;5.382;2023-07-20T04:17:58;5.05;;;2.45;;
43650;SDS011;29247;50.944;5.382;2023-07-20T04:20:25;7.65;;;4.05;;
43650;SDS011;29247;50.944;5.382;2023-07-20T04:22:51;7.22;;;3.00;;
43650;SDS011;29247;50.944;5.382;2023-07-20T04:25:17;7.20;;;3.00;;
43650;SDS011;29247;50.944;5.382;2023-07-20T04:27:43;8.65;;;2.70;;
43650;SDS011;29247;50.944;5.382;2023-07-20T04:30:11;9.25;;;3.72;;
43650;SDS011;29247;50.944;5.382;2023-07-20T04:32:38;4.82;;;3.22;;
43650;SDS011;29247;50.944;5.382;2023-07-20T04:35:09;7.85;;;3.50;;
43650;SDS011;29247;50.944;5.382;2023-07-20T04:37:37;9.15;;;3.40;;
43650;SDS011;29247;50.944;5.382;2023-07-20T04:40:03;8.95;;;4.10;;
43650;SDS011;29247;50.944;5.382;2023-07-20T04:42:29;6.10;;;4.03;;
43650;SDS011;29247;50.944;5.382;2023-07-20T04:44:54;6.03;;;3.25;;
43650;SDS011;29247;50.944;5.382;2023-07-20T04:47:22;7.13;;;3.92;;
43650;SDS011;29247;50.944;5.382;2023-07-20T04:49:50;10.05;;;4.88;;
43650;SDS011;29247;50.944;5.382;2023-07-20T04:52:16;6.72;;;3.97;;
43650;SDS011;29247;50.944;5.382;2023-07-20T04:54:41;8.85;;;4.32;;
43650;SDS011;29247;50.944;5.382;2023-07-20T04:57:11;7.50;;;3.75;;
43650;SDS011;29247;50.944;5.382;2023-07-20T04:59:36;8.43;;;3.58;;
43650;SDS011;29247;50.944;5.382;2023-07-20T05:02:02;12.00;;;5.07;;
43650;SDS011;29247;50.944;5.382;2023-07-20T05:04:30;9.60;;;5.22;;
43650;SDS011;29247;50.944;5.382;2023-07-20T05:06:56;11.18;;;4.32;;
43650;SDS011;29247;50.944;5.382;2023-07-20T05:09:24;9.43;;;5.13;;
43650;SDS011;29247;50.944;5.382;2023-07-20T05:11:50;14.68;;;6.68;;
43650;SDS011;29247;50.944;5.382;2023-07-20T05:14:15;10.20;;;5.47;;
43650;SDS011;29247;50.944;5.382;2023-07-20T05:16:43;11.50;;;8.02;;
43650;SDS011;29247;50.944;5.382;2023-07-20T05:19:09;12.55;;;7.75;;
43650;SDS011;29247;50.944;5.382;2023-07-20T05:21:39;12.25;;;7.47;;
43650;SDS011;29247;50.944;5.382;2023-07-20T05:24:05;9.23;;;7.18;;
43650;SDS011;29247;50.944;5.382;2023-07-20T05:26:31;12.68;;;7.35;;
43650;SDS011;29247;50.944;5.382;2023-07-20T05:29:00;13.60;;;7.65;;
43650;SDS011;29247;50.944;5.382;2023-07-20T05:31:26;10.98;;;6.90;;
43650;SDS011;29247;50.944;5.382;2023-07-20T05:33:51;15.82;;;7.15;;
43650;SDS011;29247;50.944;5.382;2023-07-20T05:36:17;18.85;;;7.53;;
43650;SDS011;29247;50.944;5.382;2023-07-20T05:38:43;10.25;;;6.72;;
43650;SDS011;29247;50.944;5.382;2023-07-20T05:41:08;9.15;;;6.95;;
43650;SDS011;29247;50.944;5.382;2023-07-20T05:43:35;12.05;;;6.00;;
43650;SDS011;29247;50.944;5.382;2023-07-20T05:46:01;13.27;;;6.50;;
43650;SDS011;29247;50.944;5.382;2023-07-20T05:48:26;15.63;;;7.25;;
43650;SDS011;29247;50.944;5.382;2023-07-20T05:50:52;12.68;;;7.55;;
43650;SDS011;29247;50.944;5.382;2023-07-20T05:53:18;11.57;;;6.32;;
43650;SDS011;29247;50.944;5.382;2023-07-20T05:55:51;12.05;;;7.85;;
43650;SDS011;29247;50.944;5.382;2023-07-20T05:58:17;11.15;;;7.45;;
43650;SDS011;29247;50.944;5.382;2023-07-20T06:00:47;16.70;;;8.80;;
43650;SDS011;29247;50.944;5.382;2023-07-20T06:03:14;12.77;;;7.93;;
43650;SDS011;29247;50.944;5.382;2023-07-20T06:05:42;15.52;;;7.95;;
43650;SDS011;29247;50.944;5.382;2023-07-20T06:08:08;12.73;;;7.38;;
43650;SDS011;29247;50.944;5.382;2023-07-20T06:10:34;11.80;;;8.20;;
43650;SDS011;29247;50.944;5.382;2023-07-20T06:12:59;12.80;;;8.80;;
43650;SDS011;29247;50.944;5.382;2023-07-20T06:15:31;11.15;;;7.32;;
43650;SDS011;29247;50.944;5.382;2023-07-20T06:17:59;12.88;;;8.65;;
43650;SDS011;29247;50.944;5.382;2023-07-20T06:20:25;16.30;;;10.00;;
43650;SDS011;29247;50.944;5.382;2023-07-20T06:22:54;14.40;;;8.48;;
43650;SDS011;29247;50.944;5.382;2023-07-20T06:25:22;15.18;;;8.43;;
43650;SDS011;29247;50.944;5.382;2023-07-20T06:27:49;11.57;;;7.78;;
43650;SDS011;29247;50.944;5.382;2023-07-20T06:30:18;13.55;;;7.65;;
43650;SDS011;29247;50.944;5.382;2023-07-20T06:32:45;15.02;;;9.52;;
43650;SDS011;29247;50.944;5.382;2023-07-20T06:35:10;12.43;;;8.07;;
43650;SDS011;29247;50.944;5.382;2023-07-20T06:37:38;17.13;;;9.27;;
43650;SDS011;29247;50.944;5.382;2023-07-20T06:40:04;16.17;;;8.73;;
43650;SDS011;29247;50.944;5.382;2023-07-20T06:42:30;13.90;;;8.25;;
43650;SDS011;29247;50.944;5.382;2023-07-20T06:44:58;11.68;;;8.68;;
43650;SDS011;29247;50.944;5.382;2023-07-20T06:47:26;16.55;;;8.23;;
43650;SDS011;29247;50.944;5.382;2023-07-20T06:49:52;12.00;;;8.23;;
43650;SDS011;29247;50.944;5.382;2023-07-20T06:52:22;19.98;;;9.38;;
43650;SDS011;29247;50.944;5.382;2023-07-20T06:54:48;11.32;;;8.05;;
43650;SDS011;29247;50.944;5.382;2023-07-20T06:57:13;13.15;;;8.75;;
43650;SDS011;29247;50.944;5.382;2023-07-20T06:59:41;11.98;;;7.25;;
43650;SDS011;29247;50.944;5.382;2023-07-20T07:02:07;10.18;;;7.00;;
43650;SDS011;29247;50.944;5.382;2023-07-20T07:04:33;14.15;;;7.90;;
43650;SDS011;29247;50.944;5.382;2023-07-20T07:07:01;12.68;;;7.57;;
43650;SDS011;29247;50.944;5.382;2023-07-20T07:11:57;14.77;;;7.05;;
43650;SDS011;29247;50.944;5.382;2023-07-20T07:14:22;14.93;;;7.97;;
43650;SDS011;29247;50.944;5.382;2023-07-20T07:16:48;11.48;;;8.05;;
43650;SDS011;29247;50.944;5.382;2023-07-20T07:19:16;11.05;;;7.65;;
43650;SDS011;29247;50.944;5.382;2023-07-20T07:21:42;9.93;;;7.32;;
43650;SDS011;29247;50.944;5.382;2023-07-20T07:24:10;10.48;;;7.15;;
43650;SDS011;29247;50.944;5.382;2023-07-20T07:26:36;10.20;;;7.95;;
43650;SDS011;29247;50.944;5.382;2023-07-20T07:29:02;11.55;;;7.05;;
43650;SDS011;29247;50.944;5.382;2023-07-20T07:31:29;12.07;;;7.63;;
43650;SDS011;29247;50.944;5.382;2023-07-20T07:33:57;12.33;;;7.27;;
43650;SDS011;29247;50.944;5.382;2023-07-20T07:36:23;9.68;;;7.93;;
43650;SDS011;29247;50.944;5.382;2023-07-20T07:38:50;13.82;;;7.82;;
43650;SDS011;29247;50.944;5.382;2023-07-20T07:41:20;10.55;;;6.75;;
43650;SDS011;29247;50.944;5.382;2023-07-20T07:43:46;8.38;;;7.07;;
43650;SDS011;29247;50.944;5.382;2023-07-20T07:46:11;13.18;;;7.00;;
43650;SDS011;29247;50.944;5.382;2023-07-20T07:48:38;10.25;;;6.35;;
43650;SDS011;29247;50.944;5.382;2023-07-20T07:51:04;9.75;;;6.20;;
43650;SDS011;29247;50.944;5.382;2023-07-20T07:53:29;6.47;;;5.55;;
43650;SDS011;29247;50.944;5.382;2023-07-20T07:55:57;7.70;;;5.82;;
43650;SDS011;29247;50.944;5.382;2023-07-20T07:58:23;9.80;;;6.75;;
43650;SDS011;29247;50.944;5.382;2023-07-20T08:00:49;11.80;;;6.65;;
43650;SDS011;29247;50.944;5.382;2023-07-20T08:03:17;11.38;;;6.10;;
43650;SDS011;29247;50.944;5.382;2023-07-20T08:05:43;9.90;;;5.80;;
43650;SDS011;29247;50.944;5.382;2023-07-20T08:08:13;5.47;;;4.80;;
43650;SDS011;29247;50.944;5.382;2023-07-20T08:10:42;6.38;;;5.43;;
43650;SDS011;29247;50.944;5.382;2023-07-20T08:13:07;9.48;;;6.50;;
43650;SDS011;29247;50.944;5.382;2023-07-20T08:15:33;8.73;;;5.95;;
43650;SDS011;29247;50.944;5.382;2023-07-20T08:17:58;7.82;;;5.18;;
43650;SDS011;29247;50.944;5.382;2023-07-20T08:20:24;5.18;;;4.68;;
43650;SDS011;29247;50.944;5.382;2023-07-20T08:22:54;5.93;;;5.13;;
43650;SDS011;29247;50.944;5.382;2023-07-20T08:25:23;7.22;;;4.80;;
43650;SDS011;29247;50.944;5.382;2023-07-20T08:27:48;6.35;;;4.57;;
43650;SDS011;29247;50.944;5.382;2023-07-20T08:30:14;8.32;;;5.10;;
43650;SDS011;29247;50.944;5.382;2023-07-20T08:32:42;7.10;;;4.60;;
43650;SDS011;29247;50.944;5.382;2023-07-20T08:35:08;6.25;;;5.00;;
43650;SDS011;29247;50.944;5.382;2023-07-20T08:37:34;6.18;;;4.55;;
43650;SDS011;29247;50.944;5.382;2023-07-20T08:39:59;5.13;;;3.50;;
43650;SDS011;29247;50.944;5.382;2023-07-20T08:42:26;5.28;;;3.28;;
43650;SDS011;29247;50.944;5.382;2023-07-20T08:44:52;5.15;;;3.28;;
43650;SDS011;29247;50.944;5.382;2023-07-20T08:47:21;4.68;;;3.42;;
43650;SDS011;29247;50.944;5.382;2023-07-20T08:49:48;4.72;;;3.40;;
43650;SDS011;29247;50.944;5.382;2023-07-20T08:52:14;3.63;;;3.05;;
43650;SDS011;29247;50.944;5.382;2023-07-20T08:54:42;4.43;;;2.97;;
43650;SDS011;29247;50.944;5.382;2023-07-20T08:57:08;5.60;;;3.25;;
43650;SDS011;29247;50.944;5.382;2023-07-20T08:59:41;2.83;;;2.55;;
43650;SDS011;29247;50.944;5.382;2023-07-20T09:02:08;4.18;;;2.83;;
43650;SDS011;29247;50.944;5.382;2023-07-20T09:04:41;4.85;;;2.78;;
43650;SDS011;29247;50.944;5.382;2023-07-20T09:07:08;3.88;;;2.45;;
43650;SDS011;29247;50.944;5.382;2023-07-20T09:09:39;5.47;;;2.72;;
43650;SDS011;29247;50.944;5.382;2023-07-20T09:12:08;4.97;;;3.05;;
43650;SDS011;29247;50.944;5.382;2023-07-20T09:14:42;4.53;;;2.38;;
43650;SDS011;29247;50.944;5.382;2023-07-20T09:19:47;3.30;;;2.33;;
43650;SDS011;29247;50.944;5.382;2023-07-20T09:22:15;4.20;;;3.05;;
43650;SDS011;29247;50.944;5.382;2023-07-20T09:27:09;3.95;;;2.20;;
43650;SDS011;29247;50.944;5.382;2023-07-20T09:29:46;4.07;;;2.40;;
43650;SDS011;29247;50.944;5.382;2023-07-20T09:32:13;4.30;;;2.78;;
43650;SDS011;29247;50.944;5.382;2023-07-20T09:34:54;2.78;;;2.53;;
43650;SDS011;29247;50.944;5.382;2023-07-20T09:37:22;3.47;;;2.20;;
43650;SDS011;29247;50.944;5.382;2023-07-20T09:39:48;2.95;;;1.88;;
43650;SDS011;29247;50.944;5.382;2023-07-20T09:42:18;3.42;;;2.13;;
43650;SDS011;29247;50.944;5.382;2023-07-20T09:44:48;3.17;;;2.90;;
43650;SDS011;29247;50.944;5.382;2023-07-20T09:47:23;5.55;;;1.90;;
43650;SDS011;29247;50.944;5.382;2023-07-20T09:49:49;2.90;;;1.90;;
43650;SDS011;29247;50.944;5.382;2023-07-20T09:52:22;2.05;;;1.80;;
43650;SDS011;29247;50.944;5.382;2023-07-20T09:54:50;1.92;;;1.48;;
43650;SDS011;29247;50.944;5.382;2023-07-20T09:57:16;1.65;;;1.55;;
43650;SDS011;29247;50.944;5.382;2023-07-20T09:59:43;2.22;;;1.58;;
43650;SDS011;29247;50.944;5.382;2023-07-20T10:05:02;2.30;;;2.00;;
43650;SDS011;29247;50.944;5.382;2023-07-20T10:07:33;2.50;;;1.63;;
43650;SDS011;29247;50.944;5.382;2023-07-20T10:10:05;2.22;;;1.23;;
43650;SDS011;29247;50.944;5.382;2023-07-20T10:12:35;2.30;;;1.70;;
43650;SDS011;29247;50.944;5.382;2023-07-20T10:15:10;3.30;;;1.63;;
43650;SDS011;29247;50.944;5.382;2023-07-20T10:18:09;3.75;;;1.70;;
43650;SDS011;29247;50.944;5.382;2023-07-20T10:20:43;1.60;;;1.50;;
43650;SDS011;29247;50.944;5.382;2023-07-20T10:23:11;1.90;;;1.60;;
43650;SDS011;29247;50.944;5.382;2023-07-20T10:25:37;1.85;;;1.40;;
43650;SDS011;29247;50.944;5.382;2023-07-20T10:28:10;1.95;;;1.42;;
43650;SDS011;29247;50.944;5.382;2023-07-20T10:30:36;2.70;;;1.35;;
43650;SDS011;29247;50.944;5.382;2023-07-20T10:33:05;1.88;;;1.58;;
43650;SDS011;29247;50.944;5.382;2023-07-20T10:35:51;2.22;;;1.80;;
43650;SDS011;29247;50.944;5.382;2023-07-20T10:38:38;2.38;;;1.77;;
43650;SDS011;29247;50.944;5.382;2023-07-20T10:41:18;3.83;;;1.52;;
43650;SDS011;29247;50.944;5.382;2023-07-20T10:43:47;1.92;;;1.20;;
43650;SDS011;29247;50.944;5.382;2023-07-20T10:47:01;3.58;;;1.63;;
43650;SDS011;29247;50.944;5.382;2023-07-20T10:49:05;2.05;;;1.20;;
43650;SDS011;29247;50.944;5.382;2023-07-20T10:51:45;2.85;;;1.33;;
43650;SDS011;29247;50.944;5.382;2023-07-20T10:56:46;1.80;;;1.52;;
43650;SDS011;29247;50.944;5.382;2023-07-20T10:59:19;1.85;;;1.67;;
43650;SDS011;29247;50.944;5.382;2023-07-20T11:01:52;2.58;;;1.83;;
43650;SDS011;29247;50.944;5.382;2023-07-20T11:04:37;2.10;;;1.42;;
43650;SDS011;29247;50.944;5.382;2023-07-20T11:07:08;1.75;;;1.23;;
43650;SDS011;29247;50.944;5.382;2023-07-20T11:09:34;1.48;;;1.38;;
43650;SDS011;29247;50.944;5.382;2023-07-20T11:12:18;3.75;;;1.52;;
43650;SDS011;29247;50.944;5.382;2023-07-20T11:14:52;4.05;;;1.50;;
43650;SDS011;29247;50.944;5.382;2023-07-20T11:17:19;2.88;;;1.17;;
43650;SDS011;29247;50.944;5.382;2023-07-20T11:19:50;2.55;;;1.40;;
43650;SDS011;29247;50.944;5.382;2023-07-20T11:22:21;1.60;;;1.10;;
43650;SDS011;29247;50.944;5.382;2023-07-20T11:24:47;1.50;;;1.40;;
43650;SDS011;29247;50.944;5.382;2023-07-20T11:27:14;2.20;;;1.65;;
43650;SDS011;29247;50.944;5.382;2023-07-20T11:29:40;1.65;;;1.27;;
43650;SDS011;29247;50.944;5.382;2023-07-20T11:32:08;1.35;;;1.23;;
43650;SDS011;29247;50.944;5.382;2023-07-20T11:34:34;1.27;;;1.17;;
43650;SDS011;29247;50.944;5.382;2023-07-20T11:37:00;1.40;;;1.30;;
43650;SDS011;29247;50.944;5.382;2023-07-20T11:39:29;2.50;;;1.30;;
43650;SDS011;29247;50.944;5.382;2023-07-20T11:41:55;1.40;;;1.15;;
43650;SDS011;29247;50.944;5.382;2023-07-20T11:44:23;1.50;;;1.35;;
43650;SDS011;29247;50.944;5.382;2023-07-20T11:47:02;1.98;;;1.20;;
43650;SDS011;29247;50.944;5.382;2023-07-20T11:49:28;2.28;;;1.20;;
43650;SDS011;29247;50.944;5.382;2023-07-20T11:51:57;1.23;;;1.13;;
43650;SDS011;29247;50.944;5.382;2023-07-20T11:54:23;3.97;;;1.38;;
43650;SDS011;29247;50.944;5.382;2023-07-20T11:56:53;1.45;;;1.30;;
43650;SDS011;29247;50.944;5.382;2023-07-20T11:59:20;3.20;;;1.25;;
43650;SDS011;29247;50.944;5.382;2023-07-20T12:01:46;1.00;;;0.98;;
43650;SDS011;29247;50.944;5.382;2023-07-20T12:04:12;1.67;;;1.10;;
43650;SDS011;29247;50.944;5.382;2023-07-20T12:06:38;1.67;;;1.10;;
43650;SDS011;29247;50.944;5.382;2023-07-20T12:09:12;2.13;;;1.33;;
43650;SDS011;29247;50.944;5.382;2023-07-20T12:11:42;1.98;;;1.35;;
43650;SDS011;29247;50.944;5.382;2023-07-20T12:14:13;1.10;;;1.00;;
43650;SDS011;29247;50.944;5.382;2023-07-20T12:16:39;2.92;;;1.13;;
43650;SDS011;29247;50.944;5.382;2023-07-20T12:19:08;1.50;;;1.20;;
43650;SDS011;29247;50.944;5.382;2023-07-20T12:21:38;1.80;;;1.40;;
43650;SDS011;29247;50.944;5.382;2023-07-20T12:24:07;2.95;;;1.50;;
43650;SDS011;29247;50.944;5.382;2023-07-20T12:26:36;1.65;;;1.23;;
43650;SDS011;29247;50.944;5.382;2023-07-20T12:29:02;3.47;;;1.10;;
43650;SDS011;29247;50.944;5.382;2023-07-20T12:31:28;1.30;;;0.90;;
43650;SDS011;29247;50.944;5.382;2023-07-20T12:33:56;2.15;;;0.98;;
43650;SDS011;29247;50.944;5.382;2023-07-20T12:36:23;1.10;;;1.00;;
43650;SDS011;29247;50.944;5.382;2023-07-20T12:38:49;1.33;;;1.10;;
43650;SDS011;29247;50.944;5.382;2023-07-20T12:41:15;2.88;;;1.13;;
43650;SDS011;29247;50.944;5.382;2023-07-20T12:43:46;1.90;;;1.10;;
43650;SDS011;29247;50.944;5.382;2023-07-20T12:46:12;1.23;;;1.10;;
43650;SDS011;29247;50.944;5.382;2023-07-20T12:48:41;1.33;;;1.23;;
43650;SDS011;29247;50.944;5.382;2023-07-20T12:51:07;1.23;;;1.10;;
43650;SDS011;29247;50.944;5.382;2023-07-20T12:53:34;2.17;;;1.05;;
43650;SDS011;29247;50.944;5.382;2023-07-20T12:56:00;1.30;;;1.20;;
43650;SDS011;29247;50.944;5.382;2023-07-20T12:58:28;1.10;;;1.10;;
43650;SDS011;29247;50.944;5.382;2023-07-20T13:00:58;1.20;;;1.10;;
43650;SDS011;29247;50.944;5.382;2023-07-20T13:03:24;1.00;;;0.95;;
43650;SDS011;29247;50.944;5.382;2023-07-20T13:05:50;0.80;;;0.80;;
43650;SDS011;29247;50.944;5.382;2023-07-20T13:08:16;1.15;;;1.05;;
43650;SDS011;29247;50.944;5.382;2023-07-20T13:10:41;0.85;;;0.85;;
43650;SDS011;29247;50.944;5.382;2023-07-20T13:13:13;1.50;;;1.13;;
43650;SDS011;29247;50.944;5.382;2023-07-20T13:15:43;1.13;;;1.00;;
43650;SDS011;29247;50.944;5.382;2023-07-20T13:20:35;1.98;;;1.08;;
43650;SDS011;29247;50.944;5.382;2023-07-20T13:23:01;1.90;;;1.10;;
43650;SDS011;29247;50.944;5.382;2023-07-20T13:25:28;3.08;;;1.10;;
43650;SDS011;29247;50.944;5.382;2023-07-20T13:27:54;1.05;;;0.90;;
43650;SDS011;29247;50.944;5.382;2023-07-20T13:30:20;1.42;;;1.10;;
43650;SDS011;29247;50.944;5.382;2023-07-20T13:32:46;1.13;;;0.93;;
43650;SDS011;29247;50.944;5.382;2023-07-20T13:35:12;1.33;;;1.00;;
43650;SDS011;29247;50.944;5.382;2023-07-20T13:37:38;2.30;;;1.20;;
43650;SDS011;29247;50.944;5.382;2023-07-20T13:40:06;1.00;;;0.90;;
43650;SDS011;29247;50.944;5.382;2023-07-20T13:42:33;1.33;;;1.23;;
43650;SDS011;29247;50.944;5.382;2023-07-20T13:44:59;1.58;;;1.02;;
43650;SDS011;29247;50.944;5.382;2023-07-20T13:47:26;1.75;;;1.20;;
43650;SDS011;29247;50.944;5.382;2023-07-20T13:49:51;1.48;;;1.00;;
43650;SDS011;29247;50.944;5.382;2023-07-20T13:52:17;0.88;;;0.88;;
43650;SDS011;29247;50.944;5.382;2023-07-20T13:54:47;0.95;;;0.90;;
43650;SDS011;29247;50.944;5.382;2023-07-20T13:57:15;1.67;;;1.00;;
43650;SDS011;29247;50.944;5.382;2023-07-20T13:59:43;2.42;;;0.90;;
43650;SDS011;29247;50.944;5.382;2023-07-20T14:02:10;1.98;;;0.85;;
43650;SDS011;29247;50.944;5.382;2023-07-20T14:04:36;0.90;;;0.90;;
43650;SDS011;29247;50.944;5.382;2023-07-20T14:07:02;3.72;;;1.00;;
43650;SDS011;29247;50.944;5.382;2023-07-20T14:09:27;1.80;;;0.80;;
43650;SDS011;29247;50.944;5.382;2023-07-20T14:11:53;1.05;;;0.90;;
43650;SDS011;29247;50.944;5.382;2023-07-20T14:14:21;1.58;;;0.98;;
43650;SDS011;29247;50.944;5.382;2023-07-20T14:16:46;1.08;;;0.75;;
43650;SDS011;29247;50.944;5.382;2023-07-20T14:19:12;2.35;;;0.80;;
43650;SDS011;29247;50.944;5.382;2023-07-20T14:21:38;0.98;;;0.90;;
43650;SDS011;29247;50.944;5.382;2023-07-20T14:24:06;0.63;;;0.60;;
43650;SDS011;29247;50.944;5.382;2023-07-20T14:26:34;1.05;;;0.90;;
43650;SDS011;29247;50.944;5.382;2023-07-20T14:29:03;1.02;;;0.70;;
43650;SDS011;29247;50.944;5.382;2023-07-20T14:31:28;0.85;;;0.80;;
43650;SDS011;29247;50.944;5.382;2023-07-20T14:34:03;0.73;;;0.70;;
43650;SDS011;29247;50.944;5.382;2023-07-20T14:36:30;0.95;;;0.70;;
43650;SDS011;29247;50.944;5.382;2023-07-20T14:38:55;1.40;;;0.80;;
43650;SDS011;29247;50.944;5.382;2023-07-20T14:41:21;2.08;;;0.73;;
43650;SDS011;29247;50.944;5.382;2023-07-20T14:43:49;0.85;;;0.85;;
43650;SDS011;29247;50.944;5.382;2023-07-20T14:46:19;0.90;;;0.90;;
43650;SDS011;29247;50.944;5.382;2023-07-20T14:48:45;0.95;;;0.70;;
43650;SDS011;29247;50.944;5.382;2023-07-20T14:51:13;1.42;;;1.10;;
43650;SDS011;29247;50.944;5.382;2023-07-20T14:53:41;0.93;;;0.70;;
43650;SDS011;29247;50.944;5.382;2023-07-20T14:56:07;1.05;;;0.73;;
43650;SDS011;29247;50.944;5.382;2023-07-20T14:58:33;1.27;;;0.75;;
43650;SDS011;29247;50.944;5.382;2023-07-20T15:00:58;1.10;;;0.80;;
43650;SDS011;29247;50.944;5.382;2023-07-20T15:03:24;0.70;;;0.70;;
43650;SDS011;29247;50.944;5.382;2023-07-20T15:05:49;0.80;;;0.80;;
43650;SDS011;29247;50.944;5.382;2023-07-20T15:08:16;0.63;;;0.63;;
43650;SDS011;29247;50.944;5.382;2023-07-20T15:10:44;1.85;;;0.73;;
43650;SDS011;29247;50.944;5.382;2023-07-20T15:13:11;1.75;;;0.75;;